首页
METAR-TAF:

METAR-TAF

机场 :

阿尔本加, 意大利

纬度: 44-03N, 经度: 008-07E, 海拔: 45米

当前天气观测

该预报发布于58分钟前的13:50 UTC
风速6节,风向东转东南,在东转东北南转西南之间变化
温度 24°C
湿度 65%
气压 1009 hPa
能见度10公里或以上
少量云层高于1500英尺
散云层高于3500英尺

METAR: LIMG 231350Z 12006KT 070V200 9999 FEW015 SCT035 24/17 Q1009

时间: 16:48 (14:48 UTC)


TAF: 丢失

超过4000个机场的气象观测和天气预报(METAR&TAF报告)。

可查询的气象台以黄色和红色小点在地图上表示。

将鼠标移到小点上方,可查看气象台名称。

然后点击查看天气观测和预报。

如需切换地图:点击带黑十字的绿色按钮放大地图;点击带横线的绿色按钮缩小地图;或者点击绿色箭头查看邻近地区的地图。


METAR-TAF: